Les Masies de Roda





Hora UTC 21:50
Temperatura 7.1 ºC
Sòl 15 cm 6.5 ºC
Subsòl 10 cm 7.0 ºC
Humitat 94.3 %
Pressió 1020.4 hPa
Pluja 0.0 mm
Velocitat vent 0.0 km/h
Direcció vent NNE
Radiació solar 0.1 W/m²

Dades diàries 2020-01-29



Hora UTC (hivern +1h; estiu +2h)
Temperatura (ºC) Humitat (%) Pressió (hPa) Velocitat vent (km/h) Precipitació (mm) Radiació solar (W/m²)
Hora UTC Aire Sòl 15 cm Subsòl 10 cm Humitat Pressió Vel. Dir. Vel. Max Dir. Intent. màx 5 min. Rad. Sol.
00:05 2.8 0.1 3.9 99.1 1018.3 3.9 ESE 3.9 E 0.0 0.1
00:10 2.7 0.1 3.9 98.9 1018.2 1.1 ESE 6.1 ESE 0.0 0.1
00:15 2.7 0.2 3.9 98.9 1018.2 0.0 NNE 0.0 SE 0.0 0.1
00:20 2.4 0.1 3.8 98.6 1018.2 0.0 NNE 0.0 E 0.0 0.1
00:25 2.3 -0.2 3.7 98.8 1018.2 0.0 NNE 0.0 NE 0.0 0.1
00:30 2.2 -0.2 3.7 98.8 1018.1 0.0 NNE 0.0 ENE 0.0 0.1
00:35 2.2 -0.2 3.7 98.8 1018.1 0.0 NNE 0.0 ENE 0.0 0.1
00:40 1.9 -0.4 3.6 98.6 1018.1 0.0 NNE 0.0 ENE 0.0 0.1
00:45 1.9 -0.5 3.6 98.8 1018.2 0.0 NNE 0.0 NNW 0.0 0.1
00:50 1.8 -0.6 3.5 98.8 1018.3 0.0 NNE 0.0 NNW 0.0 0.1
00:55 1.9 -0.5 3.5 99.0 1018.3 0.0 NNE 0.0 SW 0.0 0.1
01:00 1.8 -0.4 3.5 98.9 1018.4 0.0 NNE 0.0 SW 0.0 0.1
01:05 1.8 -0.3 3.5 99.0 1018.4 0.0 NNE 0.0 SW 0.0 0.1
01:10 1.9 -0.1 3.5 99.2 1018.3 0.0 NNE 0.0 SW 0.0 0.1
01:15 2.0 -0.1 3.6 99.3 1018.3 0.0 NNE 0.0 SSW 0.0 0.1
01:20 2.1 0.2 3.6 99.3 1018.3 0.0 NNE 0.0 SSW 0.0 0.1
01:25 2.2 0.5 3.6 99.4 1018.3 2.2 E 6.1 E 0.0 0.1
01:30 2.3 0.9 3.7 99.4 1018.3 2.1 E 6.1 E 0.0 0.1
01:35 2.4 1.2 3.7 99.4 1018.3 0.8 E 6.1 E 0.0 0.1
01:40 2.5 1.5 3.7 99.5 1018.2 0.7 E 6.1 E 0.0 0.1
01:45 2.6 1.7 3.8 99.6 1018.1 0.0 NNE 0.0 ENE 0.0 0.1
01:50 2.7 1.8 3.8 99.6 1018.2 0.4 ENE 6.1 ENE 0.0 0.1
01:55 2.6 1.8 3.9 99.4 1018.3 0.0 NW 3.4 NW 0.0 0.1
02:00 2.5 1.8 3.9 99.4 1018.3 0.0 NNE 0.0 NW 0.0 0.1
02:05 2.5 1.8 3.9 99.7 1018.2 1.8 SSW 6.1 SSW 0.0 0.1
02:10 2.6 1.9 3.9 99.7 1018.3 0.2 SSW 3.4 SSW 0.0 0.1
02:15 2.6 1.9 4.0 99.6 1018.3 0.1 SSW 3.4 SSW 0.0 0.1
02:20 2.5 1.9 4.0 99.5 1018.3 0.1 WSW 3.4 SW 0.0 0.1
02:25 2.5 1.9 4.0 99.6 1018.2 0.0 NNE 0.0 SW 0.0 0.1
02:30 2.5 2.0 4.0 99.6 1018.2 0.0 NNE 0.0 WSW 0.0 0.1
02:35 2.5 2.0 4.1 99.6 1018.2 0.0 NNE 0.0 WSW 0.0 0.1
02:40 2.5 2.1 4.1 99.7 1018.1 0.2 SW 3.4 SW 0.0 0.1
02:45 2.6 2.2 4.1 99.8 1018.0 0.0 NNE 0.0 SW 0.0 0.1
02:50 2.6 2.3 4.1 99.8 1018.1 0.0 NNE 0.0 W 0.0 0.1
02:55 2.7 2.4 4.2 99.8 1018.1 0.0 NNE 0.0 W 0.0 0.1
03:00 2.7 2.4 4.2 99.8 1018.1 0.0 NNE 0.0 W 0.0 0.1
03:05 2.8 2.5 4.2 99.8 1018.0 0.0 NNE 0.0 W 0.0 0.1
03:10 2.8 2.5 4.3 99.9 1018.0 0.0 NNE 0.0 S 0.0 0.1
03:15 2.8 2.6 4.3 99.9 1018.1 0.0 NNE 0.0 SE 0.0 0.1
03:20 2.8 2.6 4.3 99.9 1018.2 0.4 SSE 6.1 SSE 0.0 0.1
03:25 2.9 2.6 4.3 99.9 1018.2 0.0 NNE 0.0 S 0.0 0.1
03:30 2.9 2.6 4.3 99.9 1018.1 0.0 NNE 0.0 SSE 0.0 0.1
03:35 2.8 2.6 4.3 100.0 1018.0 0.0 NNE 0.0 SSE 0.0 0.1
03:40 2.8 2.6 4.3 100.0 1018.0 0.0 NNE 0.0 S 0.0 0.1
03:45 2.8 2.6 4.3 100.0 1018.1 0.2 S 6.1 S 0.0 0.1
03:50 2.8 2.6 4.3 100.0 1018.2 0.4 S 3.4 S 0.0 0.1
03:55 2.8 2.6 4.4 100.0 1018.2 0.0 NNE 0.0 SSE 0.0 0.1
04:00 2.8 2.6 4.4 100.0 1018.2 0.0 NNE 0.0 SSW 0.0 0.1
04:05 2.7 2.5 4.4 100.0 1018.1 0.0 NNE 0.0 WNW 0.0 0.1
04:10 2.7 2.5 4.4 100.0 1018.2 1.2 WNW 6.1 W 0.0 0.1
04:15 2.6 2.5 4.4 100.0 1018.3 0.0 WNW 3.4 WNW 0.0 0.1
04:20 2.6 2.4 4.4 100.0 1018.4 0.7 SW 6.1 SW 0.0 0.1
04:25 2.5 2.4 4.4 100.0 1018.4 3.7 W 8.8 W 0.0 0.1
04:30 2.4 2.3 4.4 99.9 1018.4 4.0 WSW 6.1 WSW 0.0 0.1
04:35 2.3 2.2 4.3 100.0 1018.4 2.2 WSW 6.1 W 0.0 0.1
04:40 2.3 2.1 4.3 100.0 1018.5 1.4 SW 6.1 SW 0.0 0.1
04:45 2.2 2.1 4.3 100.0 1018.6 0.9 SW 6.1 SW 0.0 0.1
04:50 2.2 2.0 4.3 100.0 1018.5 0.0 NNE 0.0 W 0.0 0.1
04:55 2.1 2.0 4.3 100.0 1018.5 0.0 NNE 0.0 SSE 0.0 0.1
05:00 2.1 1.9 4.3 100.0 1018.5 0.0 NNE 0.0 SSE 0.0 0.1
05:05 2.1 1.9 4.3 100.0 1018.6 0.0 NNE 0.0 N 0.0 0.1
05:10 2.1 1.9 4.3 100.0 1018.6 0.0 NNE 0.0 NNE 0.0 0.1
05:15 2.0 1.9 4.3 100.0 1018.8 1.0 W 6.1 W 0.0 0.1
05:20 2.0 1.9 4.3 100.0 1018.8 2.8 WNW 6.1 WNW 0.0 0.1
05:25 2.0 1.9 4.3 100.0 1018.7 1.0 WNW 6.1 WNW 0.0 0.1
05:30 2.0 1.8 4.3 100.0 1018.6 0.0 NNE 0.0 WNW 0.0 0.1
05:35 1.9 1.8 4.3 100.0 1018.8 0.0 NNE 0.0 W 0.0 0.1
05:40 2.0 1.9 4.3 100.0 1019.0 0.0 NNE 0.0 WNW 0.0 0.1
05:45 2.0 1.9 4.3 100.0 1018.9 0.0 NNE 0.0 W 0.0 0.1
05:50 2.0 1.9 4.3 100.0 1019.0 2.5 SW 8.8 SW 0.0 0.1
05:55 2.0 1.9 4.3 100.0 1019.0 0.0 NNE 0.0 WSW 0.0 0.1
06:00 2.0 1.9 4.3 100.0 1019.0 0.0 NNE 0.0 SSW 0.0 0.1
06:05 2.0 1.9 4.3 100.0 1019.0 0.0 NNE 0.0 WSW 0.0 0.1
06:10 2.0 1.9 4.3 100.0 1019.0 0.2 SW 6.1 WSW 0.0 0.1
06:15 2.1 1.9 4.3 100.0 1019.0 2.3 SSW 6.1 SW 0.0 0.1
06:20 2.0 1.9 4.3 100.0 1019.1 0.2 WSW 3.4 W 0.0 0.1
06:25 2.0 1.9 4.3 100.0 1019.4 0.0 NNE 0.0 WSW 0.0 0.1
06:30 2.0 1.8 4.3 100.0 1019.6 0.0 NNE 0.0 NW 0.0 0.1
06:35 2.0 1.8 4.3 100.0 1019.5 0.0 NNE 0.0 NNW 0.0 0.1
06:40 2.0 1.9 4.2 100.0 1019.4 1.2 ESE 6.1 ESE 0.0 0.1
06:45 2.0 1.9 4.2 100.0 1019.4 0.8 ESE 6.1 ESE 0.0 0.1
06:50 2.1 1.9 4.2 100.0 1019.5 0.1 E 3.4 E 0.0 0.1
06:55 2.2 2.0 4.2 100.0 1019.5 2.0 ESE 6.1 ESE 0.0 0.3
07:00 2.2 2.0 4.2 100.0 1019.6 0.0 S 3.4 SE 0.0 0.7
07:05 2.2 2.0 4.2 100.0 1019.6 0.0 NNE 0.0 S 0.0 1.7
07:10 2.3 2.1 4.2 100.0 1019.7 0.0 NNE 0.0 SSE 0.0 2.3
07:15 2.3 2.1 4.2 100.0 1019.7 0.0 NNE 0.0 WSW 0.0 3.2
07:20 2.4 2.2 4.2 100.0 1019.8 0.0 NNE 0.0 SW 0.0 5.3
07:25 2.4 2.2 4.3 100.0 1019.8 0.0 NNE 0.0 SW 0.0 7.6
07:30 2.4 2.2 4.3 100.0 1019.9 0.0 NNE 0.0 WNW 0.0 10.2
07:35 2.4 2.3 4.3 100.0 1020.1 0.0 NNE 0.0 NW 0.0 16.7
07:40 2.4 2.4 4.3 100.0 1020.2 0.0 NNE 0.0 NW 0.0 18.1
07:45 2.4 2.4 4.3 100.0 1020.2 0.0 NNE 0.0 WNW 0.0 19.8
07:50 2.4 2.5 4.4 100.0 1020.2 0.0 NNE 0.0 WNW 0.0 22.9
07:55 2.5 2.6 4.4 100.0 1020.3 0.0 NNE 0.0 WNW 0.0 23.2
08:00 2.6 2.6 4.4 100.0 1020.4 0.0 NNE 0.0 WNW 0.0 26.6
08:05 2.6 2.7 4.5 100.0 1020.4 0.0 NNE 0.0 NNW 0.0 32.9
08:10 2.7 2.9 4.5 100.0 1020.5 0.0 NNE 0.0 NNW 0.0 37.0
08:15 2.8 3.0 4.5 100.0 1020.5 0.0 NNE 0.0 NW 0.0 43.2
08:20 2.9 3.1 4.6 100.0 1020.4 0.0 NNE 0.0 N 0.0 65.8
08:25 3.0 3.4 4.7 100.0 1020.4 0.0 NNE 0.0 N 0.0 88.3
08:30 3.1 3.7 4.8 100.0 1020.4 0.0 NNE 0.0 N 0.0 87.8
08:35 3.2 3.8 4.9 100.0 1020.4 0.0 NNE 0.0 NNW 0.0 46.7
08:40 3.2 3.9 4.9 100.0 1020.4 0.0 NNE 0.0 NNW 0.0 51.4
08:45 3.3 4.0 4.9 100.0 1020.6 0.0 NNE 0.0 N 0.0 60.1
08:50 3.3 4.0 5.0 100.0 1020.7 0.0 NNE 0.0 NW 0.0 82.9
08:55 3.4 4.2 5.0 100.0 1020.8 0.0 NNE 0.0 NNW 0.0 135.4
09:00 3.6 4.6 5.2 100.0 1020.7 0.0 NNE 0.0 NNW 0.0 125.1
09:05 3.8 4.8 5.3 100.0 1020.8 0.0 NNE 0.0 SW 0.0 119.7
09:10 3.8 4.8 5.4 100.0 1020.8 0.0 NNE 0.0 SW 0.0 85.6
09:15 3.9 4.7 5.4 100.0 1020.8 0.0 NNE 0.0 SW 0.0 135.7
09:20 4.0 5.2 5.5 100.0 1020.8 0.0 NNE 0.0 W 0.0 278.8
09:25 4.4 6.2 5.8 100.0 1020.8 0.0 NNE 0.0 W 0.0 240.9
09:30 4.3 6.1 6.0 99.9 1020.8 0.0 NNE 0.0 NNW 0.0 120.2
09:35 4.3 5.9 6.1 99.9 1020.9 0.0 NNE 0.0 W 0.0 106.9
09:40 4.3 5.7 6.1 99.9 1020.9 0.0 NNE 0.0 WNW 0.0 112.4
09:45 4.4 5.6 6.1 99.9 1020.9 0.0 NNE 0.0 NW 0.0 113.5
09:50 4.5 5.6 6.1 99.8 1021.0 0.0 NNE 0.0 WNW 0.0 100.1
09:55 4.4 5.5 6.1 99.7 1021.0 0.0 NNE 0.0 WSW 0.0 109.3
10:00 4.5 5.7 6.2 99.7 1021.1 0.0 NNE 0.0 SSW 0.0 128.2
10:05 4.6 6.0 6.2 99.5 1021.1 0.0 NNE 0.0 SSW 0.0 195.5
10:10 4.9 6.5 6.4 99.5 1021.2 0.4 SW 3.4 SW 0.0 215.8
10:15 5.2 7.0 6.5 99.2 1021.2 0.8 WNW 6.1 WNW 0.0 264.3
10:20 5.1 7.0 6.7 98.5 1021.2 0.0 NNE 0.0 WNW 0.0 107.6
10:25 5.1 6.7 6.8 98.2 1021.2 0.0 NNE 0.0 NNW 0.0 149.9
10:30 5.1 6.4 6.8 97.8 1021.3 3.3 NNW 6.1 NW 0.0 107.0
10:35 5.2 6.3 6.8 97.5 1021.3 1.9 NNW 6.1 NW 0.0 148.7
10:40 5.3 6.4 6.8 97.0 1021.3 2.9 NNW 8.8 NW 0.0 161.1
10:45 5.2 6.4 6.9 96.1 1021.3 3.8 NNW 6.1 NW 0.0 167.2
10:50 5.1 6.4 7.0 95.7 1021.3 1.2 NNW 6.1 NNW 0.0 195.0
10:55 5.3 6.8 7.0 95.9 1021.2 0.0 NNE 0.0 NW 0.0 206.8
11:00 5.4 6.9 7.1 95.2 1021.3 0.0 NNE 0.0 WSW 0.0 193.8
11:05 5.4 7.1 7.2 94.4 1021.2 0.0 NNE 0.0 S 0.0 131.0
11:10 5.4 7.4 7.2 94.2 1021.1 0.0 NNE 0.0 ESE 0.0 176.8
11:15 5.5 7.1 7.3 94.5 1021.0 2.8 W 8.8 W 0.0 192.4
11:20 5.6 7.2 7.4 94.2 1021.0 1.1 WSW 6.1 WSW 0.0 207.2
11:25 5.7 7.3 7.5 93.7 1021.0 2.7 WSW 6.1 WNW 0.0 197.5
11:30 5.7 7.3 7.6 93.9 1021.0 3.9 SW 8.8 SW 0.0 163.6
11:35 5.5 7.1 7.6 94.0 1020.9 4.6 SSW 8.8 SSW 0.0 214.7
11:40 5.7 7.5 7.7 93.9 1020.7 1.4 W 6.1 WNW 0.0 300.8
11:45 5.7 7.8 7.8 93.0 1020.7 0.1 S 6.1 S 0.0 257.7
11:50 5.8 8.0 7.9 92.4 1020.6 0.0 NNE 0.0 SSE 0.0 209.4
11:55 6.0 8.3 8.0 92.8 1020.6 0.0 NNE 0.0 SSE 0.0 263.7
12:00 6.1 8.5 8.1 92.2 1020.6 0.0 NNE 0.0 SSW 0.0 264.4
12:05 6.2 8.8 8.2 91.8 1020.5 0.9 SSW 6.1 SSW 0.0 272.1
12:10 6.1 8.8 8.4 91.9 1020.3 0.0 NNE 0.0 SSW 0.0 321.3
12:15 6.3 9.5 8.5 92.0 1020.2 0.0 NNE 0.0 S 0.0 221.4
12:20 6.4 9.4 8.6 92.0 1020.2 2.5 NNE 8.8 ENE 0.0 161.6
12:25 6.3 8.5 8.6 92.3 1020.2 4.4 NNW 8.8 NNE 0.0 178.3
12:30 6.3 8.3 8.6 92.7 1020.1 1.9 NNW 6.1 N 0.0 274.4
12:35 6.7 8.9 8.8 92.3 1020.1 0.1 NE 3.4 NE 0.0 371.7
12:40 6.9 9.7 9.1 90.4 1020.0 2.9 NNE 8.8 NNE 0.0 283.2
12:45 6.8 8.8 9.2 90.8 1019.9 0.0 WNW 3.4 WNW 0.0 218.0
12:50 7.0 9.2 9.2 90.1 1019.8 1.0 NNW 6.1 NNW 0.0 350.5
12:55 7.1 9.9 9.5 89.4 1019.7 1.2 NNW 6.1 NNW 0.0 345.3
13:00 7.2 10.9 9.8 89.5 1019.7 0.3 NE 6.1 NE 0.0 347.7
13:05 7.3 11.7 10.1 88.6 1019.8 0.7 NE 3.4 NE 0.0 375.1
13:10 7.9 11.9 10.4 88.7 1019.6 0.0 NNE 0.0 NNW 0.0 352.5
13:15 8.1 12.4 10.6 85.9 1019.5 0.0 NNE 0.0 ENE 0.0 400.6
13:20 8.4 12.8 10.9 84.9 1019.4 0.0 NNE 0.0 ENE 0.0 435.8
13:25 8.5 13.5 11.3 84.9 1019.3 1.4 WNW 6.1 WNW 0.0 425.4
13:30 8.8 12.6 11.5 84.2 1019.3 3.2 WNW 8.8 NW 0.0 410.6
13:35 9.2 12.7 11.6 83.5 1019.2 3.7 WNW 8.8 WNW 0.0 393.0
13:40 9.4 12.5 11.7 81.9 1019.2 3.0 W 8.8 W 0.0 406.4
13:45 9.9 12.5 11.9 79.2 1019.2 2.3 SW 6.1 SW 0.0 385.3
13:50 10.1 12.7 12.0 79.8 1019.1 1.6 SSW 6.1 SSW 0.0 340.3
13:55 10.4 12.6 12.1 79.7 1019.0 1.9 WNW 6.1 W 0.0 380.9
14:00 10.4 13.2 12.2 78.6 1018.9 0.0 WNW 3.4 WNW 0.0 370.7
14:05 10.7 13.5 12.3 77.3 1018.8 0.8 W 6.1 W 0.0 392.4
14:10 11.1 13.5 12.5 76.7 1018.9 1.1 WNW 6.1 WNW 0.0 378.5
14:15 11.0 13.7 12.5 76.2 1018.8 1.2 WNW 6.1 WNW 0.0 311.2
14:20 11.0 13.3 12.5 75.9 1018.7 1.0 NNW 6.1 NW 0.0 300.9
14:25 11.1 13.5 12.5 74.3 1018.7 1.2 NW 6.1 NNE 0.0 383.9
14:30 11.7 13.7 12.6 70.4 1018.7 1.0 NW 6.1 W 0.0 344.6
14:35 11.2 14.7 12.7 71.0 1018.7 0.1 NNE 3.4 NNE 0.0 292.4
14:40 11.3 14.8 12.7 71.5 1018.6 0.7 E 3.4 NE 0.0 299.9
14:45 11.5 14.9 12.7 70.3 1018.6 0.0 ESE 3.4 ESE 0.0 236.0
14:50 11.7 13.8 12.5 70.0 1018.6 0.0 NNE 0.0 ESE 0.0 236.2
14:55 11.7 14.1 12.4 69.7 1018.6 0.0 NNE 0.0 SSW 0.0 193.4
15:00 11.7 13.4 12.2 68.9 1018.6 0.0 NNE 0.0 S 0.0 209.6
15:05 12.0 13.5 12.1 70.3 1018.7 0.0 NNE 0.0 S 0.0 223.3
15:10 12.0 13.5 12.1 70.1 1018.7 0.0 NNE 0.0 S 0.0 262.8
15:15 12.0 13.9 12.1 69.8 1018.7 0.1 SW 3.4 SW 0.0 252.2
15:20 12.3 13.7 12.2 69.7 1018.8 1.1 SW 6.1 WSW 0.0 308.5
15:25 12.6 14.1 12.3 69.2 1018.6 0.8 W 6.1 W 0.0 302.5
15:30 12.9 14.4 12.4 68.6 1018.6 1.4 WSW 6.1 SSW 0.0 278.9
15:35 13.1 14.4 12.4 68.1 1018.7 4.6 W 8.8 W 0.0 250.4
15:40 12.9 14.1 12.4 68.5 1018.7 5.5 WSW 8.8 WSW 0.0 226.5
15:45 12.6 13.8 12.3 69.1 1018.7 5.5 WSW 8.8 W 0.0 214.2
15:50 12.6 13.6 12.2 68.8 1018.8 5.2 SW 8.8 WSW 0.0 215.6
15:55 12.6 13.5 12.0 68.9 1018.8 5.5 SW 8.8 SW 0.0 209.7
16:00 12.7 13.3 11.9 68.1 1018.8 4.1 WSW 8.8 SW 0.0 201.9
16:05 12.7 12.9 11.8 66.5 1018.8 4.0 WSW 6.1 W 0.0 175.9
16:10 12.7 12.7 11.7 67.3 1018.9 2.9 WSW 6.1 W 0.0 166.2
16:15 12.9 12.7 11.6 66.1 1018.9 1.8 W 6.1 WNW 0.0 144.1
16:20 12.7 12.4 11.5 65.9 1018.9 0.0 NNE 0.0 WNW 0.0 123.1
16:25 12.8 12.0 11.3 65.7 1019.0 0.0 NNE 0.0 WNW 0.0 95.4
16:30 12.7 11.6 11.1 66.7 1018.9 0.1 ENE 3.4 ENE 0.0 66.8
16:35 12.3 11.2 10.9 68.0 1019.0 0.0 NNE 0.0 ENE 0.0 72.9
16:40 12.1 10.8 10.6 68.6 1019.1 0.0 NNE 0.0 ENE 0.0 52.9
16:45 11.9 10.2 10.4 70.0 1019.1 0.2 NE 3.4 NE 0.0 39.3
16:50 11.6 9.6 10.3 71.7 1019.2 0.1 NNE 3.4 NNE 0.0 22.0
16:55 11.5 9.1 10.1 72.4 1019.2 0.0 NNE 0.0 NNE 0.0 13.7
17:00 11.1 8.6 9.9 75.5 1019.1 0.0 NNE 0.0 NNE 0.0 8.8
17:05 10.9 8.1 9.7 76.1 1019.2 0.0 NNE 0.0 NNE 0.0 4.6
17:10 10.7 7.7 9.5 79.1 1019.3 0.0 NNE 0.0 NNE 0.0 2.2
17:15 10.2 7.2 9.3 83.9 1019.4 0.0 NNE 0.0 NNE 0.0 0.9
17:20 9.9 6.9 9.2 83.7 1019.5 0.2 SW 3.4 SW 0.0 0.3
17:25 9.6 6.5 9.0 84.1 1019.5 0.0 NNE 0.0 SW 0.0 0.2
17:30 9.2 6.1 8.8 87.3 1019.6 0.0 NNE 0.0 SW 0.0 0.1
17:35 9.0 5.8 8.7 88.4 1019.6 0.8 SSW 3.4 SSW 0.0 0.1
17:40 8.9 5.6 8.6 87.3 1019.7 0.8 SSW 3.4 SSW 0.0 0.1
17:45 8.6 5.5 8.4 88.8 1019.7 1.6 E 6.1 E 0.0 0.1
17:50 8.5 5.4 8.3 89.3 1019.7 1.4 ESE 6.1 SE 0.0 0.1
17:55 8.3 5.4 8.2 89.7 1019.8 0.0 NNE 0.0 ESE 0.0 0.1
18:00 8.2 5.4 8.1 89.6 1019.8 0.0 NNE 0.0 SE 0.0 0.1
18:05 8.0 5.2 8.0 89.8 1019.8 0.0 NNE 0.0 ESE 0.0 0.1
18:10 7.9 4.9 7.8 90.8 1019.8 0.0 NNE 0.0 SE 0.0 0.1
18:15 7.7 4.7 7.7 91.7 1019.8 0.0 NNE 0.0 SE 0.0 0.1
18:20 7.6 4.6 7.6 91.7 1019.8 0.0 NNE 0.0 ESE 0.0 0.1
18:25 7.5 4.4 7.6 92.0 1019.7 0.0 NNE 0.0 ESE 0.0 0.1
18:30 7.3 4.4 7.5 92.2 1019.7 0.0 NNE 0.0 ESE 0.0 0.1
18:35 7.1 4.4 7.4 92.6 1019.8 0.0 NNE 0.0 N 0.0 0.1
18:40 7.2 4.5 7.3 93.5 1019.8 0.0 NNE 0.0 N 0.0 0.1
18:45 7.2 4.4 7.3 92.7 1019.8 0.0 NNE 0.0 N 0.0 0.1
18:50 6.9 4.2 7.2 93.3 1019.9 0.0 NNE 0.0 N 0.0 0.1
18:55 6.7 4.1 7.1 93.7 1020.0 0.0 NNE 0.0 N 0.0 0.1
19:00 6.5 3.9 7.0 93.9 1020.1 0.0 NNE 0.0 N 0.0 0.1
19:05 6.4 3.7 6.9 94.2 1020.1 0.0 NNE 0.0 N 0.0 0.1
19:10 6.3 3.7 6.9 94.6 1020.2 0.0 NNE 0.0 N 0.0 0.1
19:15 6.3 3.7 6.8 95.0 1020.2 0.0 NNE 0.0 N 0.0 0.1
19:20 6.3 3.7 6.8 95.5 1020.2 0.0 NNE 0.0 ENE 0.0 0.1
19:25 6.4 3.8 6.7 95.4 1020.2 0.0 NNE 0.0 ESE 0.0 0.1
19:30 6.5 4.1 6.7 94.6 1020.3 0.0 NNE 0.0 SE 0.0 0.1
19:35 6.2 4.0 6.6 94.9 1020.4 0.0 NNE 0.0 SSE 0.0 0.1
19:40 6.3 4.1 6.6 95.2 1020.5 0.0 NNE 0.0 SSE 0.0 0.1
19:45 6.2 4.1 6.6 94.3 1020.5 0.0 NNE 0.0 NNE 0.0 0.1
19:50 6.2 4.1 6.6 95.0 1020.4 0.2 E 6.1 E 0.0 0.1
19:55 6.4 4.4 6.6 94.3 1020.3 0.5 ESE 6.1 E 0.0 0.1
20:00 6.3 4.7 6.6 93.9 1020.5 0.0 NNE 0.0 ESE 0.0 0.1
20:05 6.3 4.8 6.6 94.4 1020.5 0.0 NNE 0.0 ESE 0.0 0.1
20:10 6.3 5.0 6.6 95.0 1020.5 0.4 ENE 3.4 E 0.0 0.1
20:15 6.4 5.3 6.7 95.3 1020.6 0.0 ENE 3.4 ENE 0.0 0.1
20:20 6.5 5.6 6.7 95.3 1020.6 0.0 NNE 0.0 ENE 0.0 0.1
20:25 6.5 5.7 6.8 95.3 1020.6 0.0 NNE 0.0 ENE 0.0 0.1
20:30 6.5 5.8 6.8 95.3 1020.7 0.0 NNE 0.0 NNE 0.0 0.1
20:35 6.6 5.9 6.8 95.4 1020.7 0.0 NNE 0.0 NNE 0.0 0.1
20:40 6.7 6.0 6.8 95.1 1020.6 1.4 E 6.1 ESE 0.0 0.1
20:45 6.8 6.1 6.9 94.5 1020.6 0.0 NNE 0.0 E 0.0 0.1
20:50 6.8 6.2 6.9 94.7 1020.5 0.0 NNE 0.0 E 0.0 0.1
20:55 6.8 6.2 6.9 94.8 1020.5 0.9 W 6.1 W 0.0 0.1
21:00 6.8 6.2 6.9 94.9 1020.5 1.3 W 6.1 W 0.0 0.1
21:05 6.8 6.2 6.9 95.1 1020.5 0.0 NNE 0.0 W 0.0 0.1
21:10 6.8 6.3 6.9 95.0 1020.5 0.0 NNE 0.0 W 0.0 0.1
21:15 6.9 6.3 6.9 94.9 1020.5 0.0 NNE 0.0 W 0.0 0.1
21:20 6.9 6.3 7.0 95.1 1020.5 0.0 NNE 0.0 W 0.0 0.1
21:25 7.0 6.4 7.0 95.2 1020.4 0.0 NNE 0.0 W 0.0 0.1
21:30 7.0 6.4 7.0 95.1 1020.4 0.0 NNE 0.0 W 0.0 0.1
21:35 7.0 6.5 7.0 95.0 1020.5 0.0 NNE 0.0 W 0.0 0.1
21:40 7.1 6.5 7.0 94.6 1020.5 0.0 NNE 0.0 WSW 0.0 0.1
21:45 7.1 6.5 7.0 94.6 1020.4 0.0 NNE 0.0 WSW 0.0 0.1
21:50 7.1 6.5 7.0 94.3 1020.4 0.0 NNE 0.0 WSW 0.0 0.1
Màxima 13.1 14.9 12.7 100.0 1021.3 5.5 SW 8.8 SW 0.0 435.8
Mínima 1.7 -0.6 3.5 65.7 1018.0
Total 0.0